Anatone, Washington
Current Conditions -  °F | °C
As of 2:56 PM on Monday 22 Dec 2014 (Local Time) from KLWS Reporting Station
Light Rain Light Rain  
Wind Chill: 44°   Ceiling: Unl
Heat Index: 48°   Visibility: 10mi
Dew Point: 29°   Wind: 9mph
Humidity: 48%   Direction: 280°W
Pressure: 30.26"   Gusts: 20mph
Location:  46.13°N, 117.13°W
Report Text: KLWS 222256Z 28008G17KT 10SM -RA CLR 09/M02 A3026 RMK AO2 RAB2157E23B49 SLP253 P0000 T00891017
Loading
Personal Weather Stations






























Interactive Weather Map New forecast layout! Learn more

10-Day Weather Forecast

Advertisements
Track Severe Weather on mobile